sensor_id;sensor_type;location;lat;lon;timestamp;pressure;altitude;pressure_sealevel;temperature;humidity
66021;BME280;52789;59.980;30.346;2023-04-08T00:00:49;102794.63;;;1.04;76.37
66021;BME280;52789;59.980;30.346;2023-04-08T00:03:15;102792.06;;;1.02;76.33
66021;BME280;52789;59.980;30.346;2023-04-08T00:05:40;102789.59;;;0.98;77.41
66021;BME280;52789;59.980;30.346;2023-04-08T00:08:05;102791.41;;;0.96;77.45
66021;BME280;52789;59.980;30.346;2023-04-08T00:10:31;102789.84;;;0.90;77.91
66021;BME280;52789;59.980;30.346;2023-04-08T00:12:56;102789.91;;;0.88;78.70
66021;BME280;52789;59.980;30.346;2023-04-08T00:15:21;102792.59;;;0.87;78.28
66021;BME280;52789;59.980;30.346;2023-04-08T00:17:47;102789.97;;;0.85;78.56
66021;BME280;52789;59.980;30.346;2023-04-08T00:20:12;102794.38;;;0.85;78.99
66021;BME280;52789;59.980;30.346;2023-04-08T00:22:40;102795.31;;;0.82;79.20
66021;BME280;52789;59.980;30.346;2023-04-08T00:25:06;102790.09;;;0.82;79.39
66021;BME280;52789;59.980;30.346;2023-04-08T00:27:33;102793.56;;;0.83;78.67
66021;BME280;52789;59.980;30.346;2023-04-08T00:29:58;102794.47;;;0.82;79.09
66021;BME280;52789;59.980;30.346;2023-04-08T00:32:24;102791.91;;;0.80;78.94
66021;BME280;52789;59.980;30.346;2023-04-08T00:34:50;102792.00;;;0.77;79.29
66021;BME280;52789;59.980;30.346;2023-04-08T00:37:15;102789.44;;;0.76;79.58
66021;BME280;52789;59.980;30.346;2023-04-08T00:39:41;102794.69;;;0.76;79.15
66021;BME280;52789;59.980;30.346;2023-04-08T00:42:06;102797.31;;;0.76;79.15
66021;BME280;52789;59.980;30.346;2023-04-08T00:44:32;102795.63;;;0.73;80.18
66021;BME280;52789;59.980;30.346;2023-04-08T00:46:57;102797.47;;;0.71;79.90
66021;BME280;52789;59.980;30.346;2023-04-08T00:49:23;102794.88;;;0.70;80.35
66021;BME280;52789;59.980;30.346;2023-04-08T00:51:48;102799.28;;;0.69;80.08
66021;BME280;52789;59.980;30.346;2023-04-08T00:54:13;102795.84;;;0.67;80.61
66021;BME280;52789;59.980;30.346;2023-04-08T00:56:39;102800.22;;;0.67;80.44
66021;BME280;52789;59.980;30.346;2023-04-08T00:59:04;102788.03;;;0.66;80.46
66021;BME280;52789;59.980;30.346;2023-04-08T01:01:33;102795.94;;;0.64;80.28
66021;BME280;52789;59.980;30.346;2023-04-08T01:07:10;102793.47;;;0.59;80.76
66021;BME280;52789;59.980;30.346;2023-04-08T01:09:32;102790.91;;;0.58;81.09
66021;BME280;52789;59.980;30.346;2023-04-08T01:12:01;102795.25;;;0.59;81.03
66021;BME280;52789;59.980;30.346;2023-04-08T01:14:28;102790.91;;;0.58;81.13
66021;BME280;52789;59.980;30.346;2023-04-08T01:16:55;102790.06;;;0.56;81.72
66021;BME280;52789;59.980;30.346;2023-04-08T01:19:26;102788.34;;;0.55;81.94
66021;BME280;52789;59.980;30.346;2023-04-08T01:21:52;102777.06;;;0.53;81.71
66021;BME280;52789;59.980;30.346;2023-04-08T01:24:22;102784.06;;;0.52;81.57
66021;BME280;52789;59.980;30.346;2023-04-08T01:26:50;102781.44;;;0.52;81.51
66021;BME280;52789;59.980;30.346;2023-04-08T01:29:15;102778.88;;;0.51;81.41
66021;BME280;52789;59.980;30.346;2023-04-08T01:31:41;102784.13;;;0.51;81.52
66021;BME280;52789;59.980;30.346;2023-04-08T01:34:06;102776.34;;;0.48;81.06
66021;BME280;52789;59.980;30.346;2023-04-08T01:36:32;102777.34;;;0.44;81.80
66021;BME280;52789;59.980;30.346;2023-04-08T01:39:00;102775.66;;;0.43;81.68
66021;BME280;52789;59.980;30.346;2023-04-08T01:41:26;102772.22;;;0.41;82.10
66021;BME280;52789;59.980;30.346;2023-04-08T01:43:53;102768.78;;;0.39;82.45
66021;BME280;52789;59.980;30.346;2023-04-08T01:46:19;102775.84;;;0.37;82.31
66021;BME280;52789;59.980;30.346;2023-04-08T01:48:44;102771.50;;;0.36;82.47
66021;BME280;52789;59.980;30.346;2023-04-08T01:51:10;102783.81;;;0.34;82.54
66021;BME280;52789;59.980;30.346;2023-04-08T01:53:36;102780.31;;;0.33;82.15
66021;BME280;52789;59.980;30.346;2023-04-08T01:56:06;102777.81;;;0.30;82.94
66021;BME280;52789;59.980;30.346;2023-04-08T01:58:41;102775.19;;;0.28;82.72
66021;BME280;52789;59.980;30.346;2023-04-08T02:01:12;102775.25;;;0.27;82.85
66021;BME280;52789;59.980;30.346;2023-04-08T02:03:38;102770.97;;;0.24;83.12
66021;BME280;52789;59.980;30.346;2023-04-08T02:06:05;102771.88;;;0.23;83.49
66021;BME280;52789;59.980;30.346;2023-04-08T02:08:32;102774.59;;;0.20;83.37
66021;BME280;52789;59.980;30.346;2023-04-08T02:10:57;102765.91;;;0.18;83.38
66021;BME280;52789;59.980;30.346;2023-04-08T02:13:23;102770.31;;;0.18;83.27
66021;BME280;52789;59.980;30.346;2023-04-08T02:15:50;102769.44;;;0.17;83.62
66021;BME280;52789;59.980;30.346;2023-04-08T02:18:21;102765.09;;;0.16;83.55
66021;BME280;52789;59.980;30.346;2023-04-08T02:20:53;102766.91;;;0.14;83.57
66021;BME280;52789;59.980;30.346;2023-04-08T02:23:24;102773.06;;;0.13;83.58
66021;BME280;52789;59.980;30.346;2023-04-08T02:25:53;102769.63;;;0.11;83.58
66021;BME280;52789;59.980;30.346;2023-04-08T02:28:19;102763.59;;;0.09;83.87
66021;BME280;52789;59.980;30.346;2023-04-08T02:30:51;102762.78;;;0.07;84.24
66021;BME280;52789;59.980;30.346;2023-04-08T02:33:20;102768.00;;;0.07;84.34
66021;BME280;52789;59.980;30.346;2023-04-08T02:35:47;102767.16;;;0.07;84.28
66021;BME280;52789;59.980;30.346;2023-04-08T02:38:13;102762.88;;;0.04;85.10
66021;BME280;52789;59.980;30.346;2023-04-08T02:40:38;102759.44;;;0.02;85.20
66021;BME280;52789;59.980;30.346;2023-04-08T02:43:04;102763.88;;;0.00;85.20
66021;BME280;52789;59.980;30.346;2023-04-08T02:45:30;102763.03;;;-0.02;85.46
66021;BME280;52789;59.980;30.346;2023-04-08T02:47:56;102757.84;;;-0.04;85.34
66021;BME280;52789;59.980;30.346;2023-04-08T02:50:21;102759.59;;;-0.04;85.60
66021;BME280;52789;59.980;30.346;2023-04-08T02:52:46;102753.50;;;-0.05;85.67
66021;BME280;52789;59.980;30.346;2023-04-08T02:55:12;102759.59;;;-0.04;85.82
66021;BME280;52789;59.980;30.346;2023-04-08T02:57:38;102767.47;;;-0.04;85.63
66021;BME280;52789;59.980;30.346;2023-04-08T03:00:03;102761.41;;;-0.06;85.98
66021;BME280;52789;59.980;30.346;2023-04-08T03:02:29;102761.31;;;-0.03;85.66
66021;BME280;52789;59.980;30.346;2023-04-08T03:04:54;102759.59;;;-0.04;85.80
66021;BME280;52789;59.980;30.346;2023-04-08T03:07:20;102755.22;;;-0.04;85.97
66021;BME280;52789;59.980;30.346;2023-04-08T03:09:45;102756.06;;;-0.03;86.08
66021;BME280;52789;59.980;30.346;2023-04-08T03:12:10;102751.69;;;-0.03;86.12
66021;BME280;52789;59.980;30.346;2023-04-08T03:14:36;102756.03;;;-0.02;86.59
66021;BME280;52789;59.980;30.346;2023-04-08T03:17:01;102754.25;;;-0.01;85.42
66021;BME280;52789;59.980;30.346;2023-04-08T03:19:26;102752.50;;;0.01;85.55
66021;BME280;52789;59.980;30.346;2023-04-08T03:21:52;102751.59;;;0.02;85.29
66021;BME280;52789;59.980;30.346;2023-04-08T03:24:17;102748.97;;;0.02;85.60
66021;BME280;52789;59.980;30.346;2023-04-08T03:26:43;102748.97;;;0.02;85.86
66021;BME280;52789;59.980;30.346;2023-04-08T03:29:09;102752.41;;;0.04;85.62
66021;BME280;52789;59.980;30.346;2023-04-08T03:31:35;102760.19;;;0.06;85.67
66021;BME280;52789;59.980;30.346;2023-04-08T03:34:00;102755.81;;;0.06;86.01
66021;BME280;52789;59.980;30.346;2023-04-08T03:36:26;102754.09;;;0.05;86.41
66021;BME280;52789;59.980;30.346;2023-04-08T03:38:51;102756.69;;;0.07;86.78
66021;BME280;52789;59.980;30.346;2023-04-08T03:41:16;102750.47;;;0.09;86.99
66021;BME280;52789;59.980;30.346;2023-04-08T03:43:42;102751.28;;;0.11;86.93
66021;BME280;52789;59.980;30.346;2023-04-08T03:46:11;102756.44;;;0.14;87.04
66021;BME280;52789;59.980;30.346;2023-04-08T03:48:39;102759.06;;;0.14;86.90
66021;BME280;52789;59.980;30.346;2023-04-08T03:51:05;102757.25;;;0.16;86.60
66021;BME280;52789;59.980;30.346;2023-04-08T03:53:31;102763.25;;;0.20;86.99
66021;BME280;52789;59.980;30.346;2023-04-08T03:56:02;102764.91;;;0.22;86.66
66021;BME280;52789;59.980;30.346;2023-04-08T03:58:28;102762.09;;;0.28;86.45
66021;BME280;52789;59.980;30.346;2023-04-08T04:00:54;102762.84;;;0.34;86.02
66021;BME280;52789;59.980;30.346;2023-04-08T04:03:19;102760.13;;;0.37;86.58
66021;BME280;52789;59.980;30.346;2023-04-08T04:05:45;102761.81;;;0.38;86.06
66021;BME280;52789;59.980;30.346;2023-04-08T04:08:11;102759.09;;;0.41;85.79
66021;BME280;52789;59.980;30.346;2023-04-08T04:10:37;102763.34;;;0.45;86.22
66021;BME280;52789;59.980;30.346;2023-04-08T04:13:03;102762.34;;;0.49;85.48
66021;BME280;52789;59.980;30.346;2023-04-08T04:15:29;102764.84;;;0.52;85.31
66021;BME280;52789;59.980;30.346;2023-04-08T04:17:55;102759.63;;;0.52;85.82
66021;BME280;52789;59.980;30.346;2023-04-08T04:20:20;102768.38;;;0.51;85.38
66021;BME280;52789;59.980;30.346;2023-04-08T04:22:46;102766.66;;;0.50;85.46
66021;BME280;52789;59.980;30.346;2023-04-08T04:25:11;102770.09;;;0.52;85.40
66021;BME280;52789;59.980;30.346;2023-04-08T04:27:37;102765.56;;;0.57;85.58
66021;BME280;52789;59.980;30.346;2023-04-08T04:30:03;102759.34;;;0.61;85.27
66021;BME280;52789;59.980;30.346;2023-04-08T04:32:29;102764.47;;;0.64;83.18
66021;BME280;52789;59.980;30.346;2023-04-08T04:34:54;102765.19;;;0.69;82.72
66021;BME280;52789;59.980;30.346;2023-04-08T04:37:19;102766.84;;;0.72;82.13
66021;BME280;52789;59.980;30.346;2023-04-08T04:39:45;102770.22;;;0.75;82.36
66021;BME280;52789;59.980;30.346;2023-04-08T04:42:11;102768.41;;;0.77;82.71
66021;BME280;52789;59.980;30.346;2023-04-08T04:44:37;102766.53;;;0.81;82.58
66021;BME280;52789;59.980;30.346;2023-04-08T04:47:03;102760.31;;;0.83;82.46
66021;BME280;52789;59.980;30.346;2023-04-08T04:49:29;102760.22;;;0.86;81.47
66021;BME280;52789;59.980;30.346;2023-04-08T04:51:54;102769.56;;;0.95;80.79
66021;BME280;52789;59.980;30.346;2023-04-08T04:54:20;102768.38;;;1.04;80.05
66021;BME280;52789;59.980;30.346;2023-04-08T04:56:46;102761.00;;;1.15;79.32
66021;BME280;52789;59.980;30.346;2023-04-08T04:59:11;102762.50;;;1.22;78.38
66021;BME280;52789;59.980;30.346;2023-04-08T05:01:37;102758.75;;;1.29;77.92
66021;BME280;52789;59.980;30.346;2023-04-08T05:04:05;102754.13;;;1.36;77.78
66021;BME280;52789;59.980;30.346;2023-04-08T05:06:31;102754.75;;;1.42;77.58
66021;BME280;52789;59.980;30.346;2023-04-08T05:08:56;102768.69;;;1.44;77.17
66021;BME280;52789;59.980;30.346;2023-04-08T05:11:22;102758.16;;;1.46;76.05
66021;BME280;52789;59.980;30.346;2023-04-08T05:13:48;102751.03;;;1.49;76.27
66021;BME280;52789;59.980;30.346;2023-04-08T05:16:16;102756.91;;;1.56;76.59
66021;BME280;52789;59.980;30.346;2023-04-08T05:18:42;102746.22;;;1.61;75.55
66021;BME280;52789;59.980;30.346;2023-04-08T05:21:10;102754.91;;;1.63;74.25
66021;BME280;52789;59.980;30.346;2023-04-08T05:23:35;102757.31;;;1.69;73.36
66021;BME280;52789;59.980;30.346;2023-04-08T05:26:00;102757.09;;;1.75;73.39
66021;BME280;52789;59.980;30.346;2023-04-08T05:28:26;102762.97;;;1.81;73.10
66021;BME280;52789;59.980;30.346;2023-04-08T05:30:51;102759.25;;;1.87;73.65
66021;BME280;52789;59.980;30.346;2023-04-08T05:33:17;102763.22;;;1.97;73.13
66021;BME280;52789;59.980;30.346;2023-04-08T05:35:43;102756.84;;;2.04;72.85
66021;BME280;52789;59.980;30.346;2023-04-08T05:38:09;102755.81;;;2.08;72.73
66021;BME280;52789;59.980;30.346;2023-04-08T05:40:37;102766.09;;;2.14;72.12
66021;BME280;52789;59.980;30.346;2023-04-08T05:43:04;102757.16;;;2.18;72.15
66021;BME280;52789;59.980;30.346;2023-04-08T05:45:29;102762.22;;;2.23;71.79
66021;BME280;52789;59.980;30.346;2023-04-08T05:47:55;102751.41;;;2.31;72.06
66021;BME280;52789;59.980;30.346;2023-04-08T05:50:21;102749.41;;;2.37;71.25
66021;BME280;52789;59.980;30.346;2023-04-08T05:52:46;102755.41;;;2.41;70.71
66021;BME280;52789;59.980;30.346;2023-04-08T05:55:13;102757.78;;;2.47;70.91
66021;BME280;52789;59.980;30.346;2023-04-08T05:57:39;102754.03;;;2.53;70.18
66021;BME280;52789;59.980;30.346;2023-04-08T06:00:06;102755.47;;;2.61;69.76
66021;BME280;52789;59.980;30.346;2023-04-08T06:02:32;102755.34;;;2.64;69.89
66021;BME280;52789;59.980;30.346;2023-04-08T06:04:58;102756.78;;;2.71;69.98
66021;BME280;52789;59.980;30.346;2023-04-08T06:07:24;102752.31;;;2.73;69.69
66021;BME280;52789;59.980;30.346;2023-04-08T06:09:50;102756.25;;;2.84;70.33
66021;BME280;52789;59.980;30.346;2023-04-08T06:12:15;102755.03;;;2.92;68.87
66021;BME280;52789;59.980;30.346;2023-04-08T06:14:52;102745.25;;;2.96;68.01
66021;BME280;52789;59.980;30.346;2023-04-08T06:17:28;102751.81;;;3.06;68.43
66021;BME280;52789;59.980;30.346;2023-04-08T06:19:53;102753.25;;;3.13;68.42
66021;BME280;52789;59.980;30.346;2023-04-08T06:22:19;102752.03;;;3.22;67.85
66021;BME280;52789;59.980;30.346;2023-04-08T06:24:48;102759.59;;;3.29;67.36
66021;BME280;52789;59.980;30.346;2023-04-08T06:27:14;102750.47;;;3.36;67.09
66021;BME280;52789;59.980;30.346;2023-04-08T06:29:40;102757.47;;;3.37;66.57
66021;BME280;52789;59.980;30.346;2023-04-08T06:32:05;102754.41;;;3.47;66.86
66021;BME280;52789;59.980;30.346;2023-04-08T06:34:34;102754.94;;;3.55;66.87
66021;BME280;52789;59.980;30.346;2023-04-08T06:36:59;102747.69;;;3.60;65.45
66021;BME280;52789;59.980;30.346;2023-04-08T06:39:25;102744.56;;;3.70;66.80
66021;BME280;52789;59.980;30.346;2023-04-08T06:41:50;102750.28;;;3.80;66.04
66021;BME280;52789;59.980;30.346;2023-04-08T06:44:19;102748.13;;;3.88;65.17
66021;BME280;52789;59.980;30.346;2023-04-08T06:46:45;102737.31;;;3.94;65.46
66021;BME280;52789;59.980;30.346;2023-04-08T06:49:11;102742.28;;;4.00;65.29
66021;BME280;52789;59.980;30.346;2023-04-08T06:51:37;102740.31;;;4.06;64.99
66021;BME280;52789;59.980;30.346;2023-04-08T06:54:04;102738.16;;;4.14;64.30
66021;BME280;52789;59.980;30.346;2023-04-08T06:56:29;102742.13;;;4.22;64.78
66021;BME280;52789;59.980;30.346;2023-04-08T06:59:05;102753.91;;;4.34;64.47
66021;BME280;52789;59.980;30.346;2023-04-08T07:01:30;102745.53;;;4.43;64.73
66021;BME280;52789;59.980;30.346;2023-04-08T07:04:11;102743.50;;;4.48;62.94
66021;BME280;52789;59.980;30.346;2023-04-08T07:06:36;102743.97;;;4.56;63.17
66021;BME280;52789;59.980;30.346;2023-04-08T07:09:02;102748.19;;;4.60;62.52
66021;BME280;52789;59.980;30.346;2023-04-08T07:11:32;102747.75;;;4.70;63.30
66021;BME280;52789;59.980;30.346;2023-04-08T07:13:58;102737.66;;;4.78;63.51
66021;BME280;52789;59.980;30.346;2023-04-08T07:16:24;102738.88;;;4.88;63.54
66021;BME280;52789;59.980;30.346;2023-04-08T07:18:51;102741.94;;;4.97;62.13
66021;BME280;52789;59.980;30.346;2023-04-08T07:21:17;102738.03;;;5.05;61.21
66021;BME280;52789;59.980;30.346;2023-04-08T07:23:42;102734.13;;;5.12;61.49
66021;BME280;52789;59.980;30.346;2023-04-08T07:26:07;102740.88;;;5.17;60.30
66021;BME280;52789;59.980;30.346;2023-04-08T07:28:34;102740.44;;;5.26;61.01
66021;BME280;52789;59.980;30.346;2023-04-08T07:31:13;102735.75;;;5.32;58.30
66021;BME280;52789;59.980;30.346;2023-04-08T07:33:40;102735.09;;;5.44;59.23
66021;BME280;52789;59.980;30.346;2023-04-08T07:36:08;102733.69;;;5.54;59.89
66021;BME280;52789;59.980;30.346;2023-04-08T07:38:36;102730.72;;;5.60;59.42
66021;BME280;52789;59.980;30.346;2023-04-08T07:41:05;102733.78;;;5.68;58.68
66021;BME280;52789;59.980;30.346;2023-04-08T07:43:32;102742.16;;;5.76;57.42
66021;BME280;52789;59.980;30.346;2023-04-08T07:46:06;102736.38;;;5.85;57.39
66021;BME280;52789;59.980;30.346;2023-04-08T07:48:33;102730.69;;;5.93;57.98
66021;BME280;52789;59.980;30.346;2023-04-08T07:51:05;102731.97;;;6.02;58.14
66021;BME280;52789;59.980;30.346;2023-04-08T07:53:32;102736.00;;;6.09;56.21
66021;BME280;52789;59.980;30.346;2023-04-08T07:55:58;102729.25;;;6.19;54.79
66021;BME280;52789;59.980;30.346;2023-04-08T07:58:24;102729.66;;;6.27;54.08
66021;BME280;52789;59.980;30.346;2023-04-08T08:00:51;102727.38;;;6.37;55.39
66021;BME280;52789;59.980;30.346;2023-04-08T08:03:18;102725.88;;;6.47;56.23
66021;BME280;52789;59.980;30.346;2023-04-08T08:05:44;102723.72;;;6.53;54.09
66021;BME280;52789;59.980;30.346;2023-04-08T08:08:10;102728.66;;;6.60;53.85
66021;BME280;52789;59.980;30.346;2023-04-08T08:10:36;102728.50;;;6.63;52.51
66021;BME280;52789;59.980;30.346;2023-04-08T08:13:03;102729.00;;;6.69;53.59
66021;BME280;52789;59.980;30.346;2023-04-08T08:15:28;102729.22;;;6.80;51.38
66021;BME280;52789;59.980;30.346;2023-04-08T08:17:54;102724.13;;;6.92;51.83
66021;BME280;52789;59.980;30.346;2023-04-08T08:20:19;102727.47;;;6.95;50.41
66021;BME280;52789;59.980;30.346;2023-04-08T08:22:45;102730.59;;;7.02;50.99
66021;BME280;52789;59.980;30.346;2023-04-08T08:25:11;102734.41;;;7.12;50.11
66021;BME280;52789;59.980;30.346;2023-04-08T08:28:03;102725.97;;;7.20;51.00
66021;BME280;52789;59.980;30.346;2023-04-08T08:30:30;102720.25;;;7.27;51.15
66021;BME280;52789;59.980;30.346;2023-04-08T08:32:56;102715.22;;;7.37;51.12
66021;BME280;52789;59.980;30.346;2023-04-08T08:35:24;102721.09;;;7.42;49.95
66021;BME280;52789;59.980;30.346;2023-04-08T08:37:49;102711.13;;;7.45;48.67
66021;BME280;52789;59.980;30.346;2023-04-08T08:40:15;102719.59;;;7.52;48.96
66021;BME280;52789;59.980;30.346;2023-04-08T08:42:41;102720.91;;;7.59;48.19
66021;BME280;52789;59.980;30.346;2023-04-08T08:45:07;102724.03;;;7.66;50.47
66021;BME280;52789;59.980;30.346;2023-04-08T08:47:32;102712.38;;;7.68;47.86
66021;BME280;52789;59.980;30.346;2023-04-08T08:49:58;102718.03;;;7.76;47.98
66021;BME280;52789;59.980;30.346;2023-04-08T08:52:23;102712.16;;;7.86;47.92
66021;BME280;52789;59.980;30.346;2023-04-08T08:54:55;102709.13;;;7.92;48.51
66021;BME280;52789;59.980;30.346;2023-04-08T08:57:21;102702.81;;;8.07;46.94
66021;BME280;52789;59.980;30.346;2023-04-08T08:59:47;102701.06;;;8.20;46.99
66021;BME280;52789;59.980;30.346;2023-04-08T09:02:25;102707.47;;;8.30;47.03
66021;BME280;52789;59.980;30.346;2023-04-08T09:04:55;102707.78;;;8.40;46.72
66021;BME280;52789;59.980;30.346;2023-04-08T09:07:23;102707.78;;;8.40;47.72
66021;BME280;52789;59.980;30.346;2023-04-08T09:09:49;102708.81;;;8.37;45.92
66021;BME280;52789;59.980;30.346;2023-04-08T09:12:14;102705.88;;;8.42;46.03
66021;BME280;52789;59.980;30.346;2023-04-08T09:14:40;102706.53;;;8.46;47.06
66021;BME280;52789;59.980;30.346;2023-04-08T09:17:05;102699.31;;;8.48;45.81
66021;BME280;52789;59.980;30.346;2023-04-08T09:19:30;102696.44;;;8.51;46.76
66021;BME280;52789;59.980;30.346;2023-04-08T09:24:31;102697.09;;;8.67;45.73
66021;BME280;52789;59.980;30.346;2023-04-08T09:26:56;102697.13;;;8.80;47.59
66021;BME280;52789;59.980;30.346;2023-04-08T09:29:22;102697.47;;;8.88;44.99
66021;BME280;52789;59.980;30.346;2023-04-08T09:31:47;102688.03;;;8.96;46.35
66021;BME280;52789;59.980;30.346;2023-04-08T09:34:17;102690.47;;;8.99;45.82
66021;BME280;52789;59.980;30.346;2023-04-08T09:36:50;102690.06;;;9.06;44.98
66021;BME280;52789;59.980;30.346;2023-04-08T09:39:16;102688.78;;;9.11;44.86
66021;BME280;52789;59.980;30.346;2023-04-08T09:41:42;102687.19;;;9.09;43.53
66021;BME280;52789;59.980;30.346;2023-04-08T09:44:08;102679.94;;;9.11;44.68
66021;BME280;52789;59.980;30.346;2023-04-08T09:49:28;102678.69;;;9.29;42.49
66021;BME280;52789;59.980;30.346;2023-04-08T09:52:04;102676.44;;;9.36;42.72
66021;BME280;52789;59.980;30.346;2023-04-08T09:54:35;102681.34;;;9.29;42.66
66021;BME280;52789;59.980;30.346;2023-04-08T09:57:04;102672.63;;;9.27;42.90
66021;BME280;52789;59.980;30.346;2023-04-08T09:59:29;102672.91;;;9.35;44.75
66021;BME280;52789;59.980;30.346;2023-04-08T10:02:00;102670.78;;;9.40;43.40
66021;BME280;52789;59.980;30.346;2023-04-08T10:04:29;102670.56;;;9.43;41.22
66021;BME280;52789;59.980;30.346;2023-04-08T10:07:02;102670.78;;;9.40;42.02
66021;BME280;52789;59.980;30.346;2023-04-08T10:09:28;102665.97;;;9.45;42.87
66021;BME280;52789;59.980;30.346;2023-04-08T10:11:54;102676.00;;;9.54;43.70
66021;BME280;52789;59.980;30.346;2023-04-08T10:14:19;102668.31;;;9.62;42.71
66021;BME280;52789;59.980;30.346;2023-04-08T10:16:46;102674.13;;;9.68;44.08
66021;BME280;52789;59.980;30.346;2023-04-08T10:23:14;102674.59;;;9.61;41.70
66021;BME280;52789;59.980;30.346;2023-04-08T10:27:40;102668.81;;;9.68;42.42
66021;BME280;52789;59.980;30.346;2023-04-08T10:32:51;102671.94;;;9.49;40.74
66021;BME280;52789;59.980;30.346;2023-04-08T10:35:16;102663.88;;;9.38;40.33
66021;BME280;52789;59.980;30.346;2023-04-08T10:37:42;102663.88;;;9.38;39.94
66021;BME280;52789;59.980;30.346;2023-04-08T10:40:18;102654.09;;;9.38;39.70
66021;BME280;52789;59.980;30.346;2023-04-08T10:42:43;102663.53;;;9.42;40.49
66021;BME280;52789;59.980;30.346;2023-04-08T10:45:09;102656.81;;;9.49;40.64
66021;BME280;52789;59.980;30.346;2023-04-08T10:47:35;102656.19;;;9.58;40.83
66021;BME280;52789;59.980;30.346;2023-04-08T10:50:10;102657.78;;;9.61;40.78
66021;BME280;52789;59.980;30.346;2023-04-08T10:52:44;102653.81;;;9.67;41.04
66021;BME280;52789;59.980;30.346;2023-04-08T10:55:10;102648.78;;;9.75;40.69
66021;BME280;52789;59.980;30.346;2023-04-08T10:57:36;102647.91;;;9.87;41.08
66021;BME280;52789;59.980;30.346;2023-04-08T11:00:01;102648.19;;;9.95;41.61
66021;BME280;52789;59.980;30.346;2023-04-08T11:02:32;102647.00;;;9.99;41.80
66021;BME280;52789;59.980;30.346;2023-04-08T11:04:59;102650.47;;;10.12;42.36
66021;BME280;52789;59.980;30.346;2023-04-08T11:07:24;102640.44;;;10.16;40.57
66021;BME280;52789;59.980;30.346;2023-04-08T11:09:51;102640.31;;;10.17;40.15
66021;BME280;52789;59.980;30.346;2023-04-08T11:12:16;102640.56;;;10.14;39.45
66021;BME280;52789;59.980;30.346;2023-04-08T11:14:43;102644.06;;;10.15;40.46
66021;BME280;52789;59.980;30.346;2023-04-08T11:17:09;102644.19;;;10.13;39.92
66021;BME280;52789;59.980;30.346;2023-04-08T11:19:36;102640.25;;;10.06;39.16
66021;BME280;52789;59.980;30.346;2023-04-08T11:22:04;102639.06;;;10.10;39.48
66021;BME280;52789;59.980;30.346;2023-04-08T11:24:31;102640.75;;;10.11;38.96
66021;BME280;52789;59.980;30.346;2023-04-08T11:26:57;102633.84;;;10.09;40.33
66021;BME280;52789;59.980;30.346;2023-04-08T11:29:23;102633.34;;;10.04;39.08
66021;BME280;52789;59.980;30.346;2023-04-08T11:31:48;102630.88;;;10.13;39.40
66021;BME280;52789;59.980;30.346;2023-04-08T11:34:20;102630.63;;;10.16;39.98
66021;BME280;52789;59.980;30.346;2023-04-08T11:36:46;102628.50;;;10.21;40.25
66021;BME280;52789;59.980;30.346;2023-04-08T11:39:11;102634.31;;;10.27;40.69
66021;BME280;52789;59.980;30.346;2023-04-08T11:41:37;102627.56;;;10.34;40.91
66021;BME280;52789;59.980;30.346;2023-04-08T11:44:05;102624.78;;;10.35;39.54
66021;BME280;52789;59.980;30.346;2023-04-08T11:46:31;102616.25;;;10.43;40.36
66021;BME280;52789;59.980;30.346;2023-04-08T11:49:06;102616.00;;;10.46;39.39
66021;BME280;52789;59.980;30.346;2023-04-08T11:51:33;102612.13;;;10.50;39.72
66021;BME280;52789;59.980;30.346;2023-04-08T11:54:00;102612.63;;;10.44;40.13
66021;BME280;52789;59.980;30.346;2023-04-08T11:56:26;102613.69;;;10.41;39.80
66021;BME280;52789;59.980;30.346;2023-04-08T11:58:54;102605.78;;;10.40;40.38
66021;BME280;52789;59.980;30.346;2023-04-08T12:01:19;102600.47;;;10.40;39.12
66021;BME280;52789;59.980;30.346;2023-04-08T12:04:20;102608.94;;;10.34;39.35
66021;BME280;52789;59.980;30.346;2023-04-08T12:06:38;102604.34;;;10.36;39.92
66021;BME280;52789;59.980;30.346;2023-04-08T12:09:03;102597.06;;;10.38;40.16
66021;BME280;52789;59.980;30.346;2023-04-08T12:11:28;102599.19;;;10.45;41.00
66021;BME280;52789;59.980;30.346;2023-04-08T12:13:54;102598.44;;;10.43;38.74
66021;BME280;52789;59.980;30.346;2023-04-08T12:16:19;102592.75;;;10.48;38.84
66021;BME280;52789;59.980;30.346;2023-04-08T12:18:45;102590.34;;;10.56;39.58
66021;BME280;52789;59.980;30.346;2023-04-08T12:21:11;102591.44;;;10.65;39.94
66021;BME280;52789;59.980;30.346;2023-04-08T12:23:36;102584.69;;;10.72;40.79
66021;BME280;52789;59.980;30.346;2023-04-08T12:26:01;102594.03;;;10.77;39.20
66021;BME280;52789;59.980;30.346;2023-04-08T12:28:27;102590.63;;;10.75;39.21
66021;BME280;52789;59.980;30.346;2023-04-08T12:30:53;102599.00;;;10.71;38.77
66021;BME280;52789;59.980;30.346;2023-04-08T12:33:18;102591.09;;;10.69;39.88
66021;BME280;52789;59.980;30.346;2023-04-08T12:35:43;102584.81;;;10.70;39.76
66021;BME280;52789;59.980;30.346;2023-04-08T12:38:09;102588.94;;;10.74;39.73
66021;BME280;52789;59.980;30.346;2023-04-08T12:40:34;102585.63;;;10.60;39.07
66021;BME280;52789;59.980;30.346;2023-04-08T12:43:00;102584.19;;;10.55;39.31
66021;BME280;52789;59.980;30.346;2023-04-08T12:45:25;102571.69;;;10.56;39.19
66021;BME280;52789;59.980;30.346;2023-04-08T12:47:51;102573.41;;;10.57;39.60
66021;BME280;52789;59.980;30.346;2023-04-08T12:50:16;102572.66;;;10.55;38.86
66021;BME280;52789;59.980;30.346;2023-04-08T12:52:41;102573.75;;;10.52;38.76
66021;BME280;52789;59.980;30.346;2023-04-08T12:55:07;102570.00;;;10.44;39.47
66021;BME280;52789;59.980;30.346;2023-04-08T12:57:32;102570.00;;;10.44;39.46
66021;BME280;52789;59.980;30.346;2023-04-08T12:59:58;102565.28;;;10.47;39.22
66021;BME280;52789;59.980;30.346;2023-04-08T13:02:23;102564.91;;;10.52;39.11